YTEF/TEF METAR and TAF weather

Enter ICAO airport designator
Station Type Date Time Source
YTEF METAR 2022/06/27 03:30 UTC NOAA

YTEF 270330Z AUTO 08016G26KT //// // NCD 22/03 Q1022


Station Type Date Time Source
YTEF Decoded METAR 2022/06/27 03:30 UTC NOAA

Station name not available
Jun 26, 2022 - 11:30 PM EDT / 2022.06.27 0330 UTC
Wind: from the E (080 degrees) at 18 MPH (16 KT) gusting to 30 MPH (26 KT):0
Temperature: 71 F (22 C)
Dew Point: 37 F (3 C)
Relative Humidity: 28%
Pressure (altimeter): 30.18 in. Hg (1022 hPa)
ob: YTEF 270330Z AUTO 08016G26KT //// // NCD 22/03 Q1022
cycle: 3

Station Type Date Time Source
YTEF TAF 2017/06/24 02:03 UTC NOAA

TAF TAF YTEF 240051Z 2402/2414 12005KT CAVOK
FM240500 33005KT 9999 -SHRA SCT060 BKN100

Example: see airport list